createdAt,value
2022-09-01T00:04:20.331Z,59.3
2022-09-01T00:09:27.659Z,59.6
2022-09-01T00:14:54.273Z,59.9
2022-09-01T00:19:40.612Z,60.1
2022-09-01T00:24:46.999Z,60.1
2022-09-01T00:34:59.835Z,60.3
2022-09-01T00:40:06.420Z,60.2
2022-09-01T00:45:12.824Z,60.3
2022-09-01T00:50:19.311Z,60.5
2022-09-01T00:55:25.681Z,60.5
2022-09-01T01:00:32.055Z,60.6
2022-09-01T01:05:38.498Z,60.7
2022-09-01T01:10:44.880Z,60.6
2022-09-01T01:15:51.262Z,60.9
2022-09-01T01:20:58.327Z,60.7
2022-09-01T01:26:04.805Z,61.1
2022-09-01T01:31:11.248Z,60.9
2022-09-01T01:36:17.585Z,60.9
2022-09-01T01:56:43.318Z,61.1
2022-09-01T02:01:49.726Z,60.9
2022-09-01T02:06:56.184Z,61.2
2022-09-01T02:12:02.585Z,61.2
2022-09-01T02:22:35.383Z,61.3
2022-09-01T02:27:21.720Z,61.5
2022-09-01T02:32:28.104Z,61.6
2022-09-01T02:37:54.521Z,61.4
2022-09-01T02:43:14.936Z,61.5
2022-09-01T02:48:22.363Z,61.7
2022-09-01T02:53:48.866Z,61.6
2022-09-01T02:58:35.314Z,61.4
2022-09-01T03:04:25.858Z,61.5
2022-09-01T03:08:38.066Z,62.0
2022-09-01T03:13:54.476Z,61.7
2022-09-01T03:19:00.865Z,61.7
2022-09-01T03:24:07.291Z,61.8
2022-09-01T03:29:13.676Z,61.7
2022-09-01T03:34:10.026Z,61.7
2022-09-01T03:39:51.675Z,61.7
2022-09-01T03:44:58.066Z,61.6
2022-09-01T03:50:42.511Z,61.5
2022-09-01T03:54:46.777Z,61.5
2022-09-01T03:59:53.168Z,61.8
2022-09-01T04:05:23.753Z,61.8
2022-09-01T04:10:06.081Z,61.8
2022-09-01T04:15:12.458Z,61.8
2022-09-01T04:20:42.981Z,61.7
2022-09-01T04:30:31.792Z,61.9
2022-09-01T04:35:38.178Z,62.2
2022-09-01T04:40:34.628Z,62.0
2022-09-01T04:45:50.951Z,62.2
2022-09-01T04:50:57.314Z,62.3
2022-09-01T04:56:03.701Z,62.5
2022-09-01T05:01:10.196Z,62.9
2022-09-01T05:06:06.463Z,62.4
2022-09-01T05:11:12.858Z,62.3
2022-09-01T05:21:35.661Z,62.9
2022-09-01T05:37:14.860Z,63.0
2022-09-01T05:42:25.241Z,63.0
2022-09-01T05:57:35.103Z,62.8
2022-09-01T06:02:17.019Z,62.9
2022-09-01T06:07:33.206Z,63.2
2022-09-01T06:12:29.626Z,64.1
2022-09-01T06:17:46.081Z,64.1
2022-09-01T06:22:42.553Z,63.7
2022-09-01T06:27:58.967Z,64.4
2022-09-01T06:38:11.709Z,65.2
2022-09-01T06:43:38.118Z,65.8
2022-09-01T06:48:48.545Z,65.8
2022-09-01T06:53:32.849Z,65.8
2022-09-01T07:03:43.806Z,66.0
2022-09-01T07:19:02.969Z,65.8
2022-09-01T07:24:11.171Z,66.2
2022-09-01T07:29:40.852Z,67.2
2022-09-01T07:34:47.662Z,67.4
2022-09-01T07:44:34.949Z,65.6
2022-09-01T07:50:11.347Z,63.6
2022-09-01T07:59:54.091Z,58.9
2022-09-01T08:05:00.485Z,57.7
2022-09-01T08:10:06.982Z,55.9
2022-09-01T08:15:37.976Z,55.2
2022-09-01T08:20:09.723Z,54.0
2022-09-01T08:25:26.147Z,52.8
2022-09-01T08:31:32.714Z,51.6
2022-09-01T08:35:28.859Z,50.9
2022-09-01T08:40:35.315Z,50.1
2022-09-01T08:46:19.791Z,49.5
2022-09-01T08:50:58.020Z,48.6
2022-09-01T08:56:04.439Z,47.9
2022-09-01T09:01:34.915Z,47.6
2022-09-01T09:06:17.189Z,46.9
2022-09-01T09:11:23.559Z,46.3
2022-09-01T09:16:30.005Z,46.0
2022-09-01T09:21:26.345Z,44.7
2022-09-01T09:26:46.780Z,44.0
2022-09-01T09:31:39.264Z,44.3
2022-09-01T09:37:47.744Z,43.8
2022-09-01T09:42:02.117Z,43.5
2022-09-01T09:47:33.380Z,43.0
2022-09-01T09:52:16.387Z,42.6
2022-09-01T09:57:22.131Z,41.3
2022-09-01T10:02:51.693Z,40.9
2022-09-01T10:07:34.025Z,41.0
2022-09-01T10:12:40.381Z,40.2
2022-09-01T10:17:36.785Z,39.5
2022-09-01T10:27:59.703Z,39.5
2022-09-01T10:33:30.111Z,39.1
2022-09-01T10:38:36.496Z,39.1
2022-09-01T10:43:22.837Z,39.0
2022-09-01T10:48:36.629Z,38.6
2022-09-01T10:53:31.203Z,38.3
2022-09-01T11:03:50.622Z,38.8
2022-09-01T11:08:51.263Z,37.4
2022-09-01T11:14:21.871Z,35.9
2022-09-01T11:20:15.811Z,35.0
2022-09-01T11:24:14.271Z,36.3
2022-09-01T11:29:06.418Z,36.5
2022-09-01T11:34:46.949Z,36.1
2022-09-01T11:44:55.683Z,35.7
2022-09-01T11:49:42.058Z,35.1
2022-09-01T11:54:48.443Z,34.3
2022-09-01T11:59:54.821Z,33.6
2022-09-01T12:05:01.197Z,33.1
2022-09-01T12:10:31.739Z,33.2
2022-09-01T12:15:14.057Z,33.7
2022-09-01T12:20:20.850Z,34.3
2022-09-01T12:25:26.809Z,34.3
2022-09-01T12:30:33.202Z,34.4
2022-09-01T12:35:39.573Z,35.2
2022-09-01T12:40:36.054Z,35.9
2022-09-01T12:45:51.471Z,36.2
2022-09-01T12:51:12.906Z,35.9
2022-09-01T12:55:55.232Z,35.7
2022-09-01T13:01:16.423Z,36.2
2022-09-01T13:06:18.045Z,36.8
2022-09-01T13:17:24.488Z,38.0
2022-09-01T13:28:26.996Z,38.0
2022-09-01T13:33:23.129Z,38.2
2022-09-01T13:38:12.903Z,38.6
2022-09-01T13:43:20.396Z,35.4
2022-09-01T13:49:02.176Z,36.0
2022-09-01T13:58:39.446Z,37.2
2022-09-01T14:03:50.028Z,37.7
2022-09-01T14:08:56.203Z,38.7
2022-09-01T14:29:21.817Z,38.7
2022-09-01T14:34:24.186Z,38.9
2022-09-01T14:39:30.573Z,39.5
2022-09-01T14:45:01.003Z,39.3
2022-09-01T14:49:43.342Z,39.5
2022-09-01T14:54:49.722Z,38.9
2022-09-01T14:59:56.185Z,39.5
2022-09-01T15:10:09.130Z,40.0
2022-09-01T15:15:15.597Z,40.3
2022-09-01T15:20:11.954Z,40.4
2022-09-01T15:25:28.354Z,40.4
2022-09-01T15:30:38.735Z,40.6
2022-09-01T15:35:31.087Z,41.1
2022-09-01T15:40:52.042Z,41.2
2022-09-01T15:45:53.945Z,41.4
2022-09-01T15:51:00.449Z,41.7
2022-09-01T15:56:06.822Z,41.9
2022-09-01T16:01:33.473Z,42.1
2022-09-01T16:11:26.069Z,42.3
2022-09-01T16:16:33.219Z,42.6
2022-09-01T16:21:38.857Z,42.6
2022-09-01T16:26:45.261Z,42.9
2022-09-01T16:31:55.820Z,42.9
2022-09-01T16:36:58.182Z,43.4
2022-09-01T16:42:08.558Z,43.6
2022-09-01T16:47:10.941Z,43.4
2022-09-01T16:52:17.362Z,43.5
2022-09-01T16:57:13.719Z,43.9
2022-09-01T17:02:30.237Z,43.4
2022-09-01T17:07:40.523Z,43.9
2022-09-01T17:12:42.909Z,44.2
2022-09-01T17:17:39.266Z,44.1
2022-09-01T17:23:15.712Z,44.1
2022-09-01T17:28:22.343Z,44.7
2022-09-01T17:38:35.116Z,44.5
2022-09-01T17:43:12.115Z,45.0
2022-09-01T17:48:28.425Z,44.8
2022-09-01T17:53:35.801Z,45.3
2022-09-01T17:58:42.320Z,45.6
2022-09-01T18:03:38.844Z,45.5
2022-09-01T18:08:45.230Z,45.4
2022-09-01T18:14:01.672Z,45.9
2022-09-01T18:19:08.010Z,45.9
2022-09-01T18:24:35.535Z,45.9
2022-09-01T18:29:42.012Z,45.8
2022-09-01T18:34:28.359Z,46.3
2022-09-01T18:44:41.128Z,46.6
2022-09-01T18:54:53.992Z,47.0
2022-09-01T19:00:00.491Z,47.1
2022-09-01T19:10:33.281Z,47.3
2022-09-01T19:15:19.634Z,47.7
2022-09-01T19:20:26.004Z,47.7
2022-09-01T19:25:32.432Z,48.0
2022-09-01T19:30:38.821Z,48.0
2022-09-01T19:35:35.259Z,48.0
2022-09-01T19:40:41.666Z,48.2
2022-09-01T19:45:58.117Z,48.4
2022-09-01T19:51:04.566Z,48.5
2022-09-01T19:56:10.944Z,48.5
2022-09-01T20:01:17.413Z,48.6
2022-09-01T20:06:23.786Z,48.8
2022-09-01T20:21:42.849Z,49.0
2022-09-01T20:26:49.237Z,49.2
2022-09-01T20:31:55.739Z,49.2
2022-09-01T20:37:06.136Z,49.3
2022-09-01T20:41:58.469Z,49.5
2022-09-01T20:47:14.868Z,49.6
2022-09-01T20:52:41.275Z,49.8
2022-09-01T20:57:47.685Z,49.7
2022-09-01T21:02:54.118Z,49.8
2022-09-01T21:17:57.392Z,50.3
2022-09-01T21:23:00.087Z,50.3
2022-09-01T21:28:06.570Z,51.0
2022-09-01T21:33:12.853Z,50.4
2022-09-01T21:38:39.271Z,50.5
2022-09-01T21:43:25.615Z,50.6
2022-09-01T21:48:52.044Z,50.6
2022-09-01T21:53:38.417Z,50.8
2022-09-01T21:59:28.884Z,50.8
2022-09-01T22:09:22.326Z,50.9
2022-09-01T22:14:04.028Z,51.1
2022-09-01T22:19:11.499Z,50.8
2022-09-01T22:24:19.336Z,51.0
2022-09-01T22:29:28.287Z,51.1
2022-09-01T22:34:30.656Z,51.3
2022-09-01T22:39:37.033Z,51.4
2022-09-01T22:44:33.393Z,51.3
2022-09-01T22:49:49.856Z,51.3
2022-09-01T22:54:46.324Z,51.5
2022-09-01T23:00:03.878Z,51.4
2022-09-01T23:10:16.615Z,52.0
2022-09-01T23:15:23.008Z,51.8
2022-09-01T23:20:29.382Z,51.6
2022-09-01T23:25:35.801Z,51.5
2022-09-01T23:30:42.146Z,51.7
2022-09-01T23:35:47.523Z,51.3
2022-09-01T23:41:15.180Z,51.8
2022-09-01T23:46:25.627Z,51.7
2022-09-01T23:50:57.977Z,51.9
2022-09-01T23:56:14.437Z,52.0
